Time;durP1;ratioP1;P1;durP2;ratioP2;P2;SDS_P1;SDS_P2;PMS_P1;PMS_P2;Temp;Humidity;BMP_temperature;BMP_pressure;BME280_temperature;BME280_humidity;BME280_pressure;Samples;Min_cycle;Max_cycle;Signal;HPM_P1;HPM_P2
2022/08/27 00:00:54;;;;;;;69.05;11.88;;;;;;;25.69;65.49;99975.81;5052174;28;20021;-76
2022/08/27 00:03:20;;;;;;;65.53;13.02;;;;;;;25.74;65.42;99987.00;5052272;28;20032;-76
2022/08/27 00:05:45;;;;;;;64.72;10.73;;;;;;;25.83;65.44;100004.84;5051839;28;20482;-76
2022/08/27 00:08:12;;;;;;;97.50;13.40;;;;;;;25.86;65.33;99998.84;5051914;28;20025;-76
2022/08/27 00:10:39;;;;;;;74.38;12.35;;;;;;;25.78;65.14;99992.81;5051957;28;20506;-76
2022/08/27 00:13:04;;;;;;;72.85;13.60;;;;;;;25.74;65.27;99991.66;5052563;28;20032;-76
2022/08/27 00:15:34;;;;;;;69.95;11.75;;;;;;;25.73;65.46;99990.81;5044685;28;20486;-76
2022/08/27 00:18:02;;;;;;;61.67;11.93;;;;;;;25.79;65.22;99992.59;5031941;28;20406;-79
2022/08/27 00:20:33;;;;;;;69.82;13.68;;;;;;;25.73;64.92;99996.31;5041420;28;20044;-79
2022/08/27 00:22:59;;;;;;;64.85;12.10;;;;;;;25.78;64.72;100004.69;5051554;28;20043;-78
2022/08/27 00:25:25;;;;;;;79.30;13.20;;;;;;;25.67;64.91;99980.75;5051756;28;20040;-78
2022/08/27 00:27:51;;;;;;;76.20;13.80;;;;;;;25.69;65.41;99997.84;5052039;28;20025;-78
2022/08/27 00:30:18;;;;;;;55.65;11.35;;;;;;;25.73;65.02;100001.81;5051974;28;20033;-78
2022/08/27 00:32:44;;;;;;;60.60;12.02;;;;;;;25.70;64.90;99994.03;5051780;28;20029;-78
2022/08/27 00:35:10;;;;;;;57.38;11.32;;;;;;;25.67;65.10;99997.28;5051823;28;20048;-78
2022/08/27 00:37:36;;;;;;;66.40;13.02;;;;;;;25.60;65.16;99993.78;5051743;28;20075;-78
2022/08/27 00:40:06;;;;;;;74.57;12.32;;;;;;;25.62;65.36;99997.16;5051467;28;20028;-78
2022/08/27 00:42:32;;;;;;;66.10;12.50;;;;;;;25.67;65.35;100001.94;5051456;28;20029;-78
2022/08/27 00:44:58;;;;;;;77.55;12.45;;;;;;;25.64;65.44;100000.50;5051385;28;20036;-78
2022/08/27 00:47:26;;;;;;;75.70;13.93;;;;;;;25.66;65.53;99994.75;5051278;28;20099;-78
2022/08/27 00:49:56;;;;;;;80.18;12.48;;;;;;;25.65;65.77;99998.59;5051227;28;20025;-78
2022/08/27 00:52:26;;;;;;;66.43;10.45;;;;;;;25.62;65.77;100005.41;5050138;28;20074;-77
2022/08/27 00:54:59;;;;;;;85.10;12.38;;;;;;;25.49;66.18;100002.88;5051435;28;20434;-77
2022/08/27 00:57:26;;;;;;;60.25;12.65;;;;;;;25.51;65.99;99997.13;5051608;28;20040;-76
2022/08/27 00:59:51;;;;;;;57.05;12.38;;;;;;;25.48;66.06;99992.91;5051208;28;20033;-79
2022/08/27 01:02:20;;;;;;;78.65;12.80;;;;;;;25.43;65.78;100007.38;5051941;28;20087;-79
2022/08/27 01:04:54;;;;;;;94.30;15.27;;;;;;;25.40;65.39;100001.50;5052293;28;20056;-78
2022/08/27 01:07:22;;;;;;;85.35;14.15;;;;;;;25.42;64.70;100004.84;5051904;28;20067;-80
2022/08/27 01:09:48;;;;;;;101.13;16.27;;;;;;;25.37;64.29;100001.97;5051935;28;20032;-79
2022/08/27 01:12:14;;;;;;;97.18;15.48;;;;;;;25.41;63.84;100006.75;5051681;28;20052;-79
2022/08/27 01:14:41;;;;;;;121.35;14.43;;;;;;;25.36;63.80;100006.66;5051768;28;20501;-78
2022/08/27 01:17:09;;;;;;;83.97;13.10;;;;;;;25.43;63.74;100003.78;5051564;28;20112;-78
2022/08/27 01:19:42;;;;;;;94.85;14.35;;;;;;;25.43;63.38;100006.53;5051344;28;20029;-79
2022/08/27 01:22:29;;;;;;;75.07;13.95;;;;;;;25.44;63.47;100011.00;5051473;28;20067;-79
2022/08/27 01:24:59;;;;;;;96.07;13.18;;;;;;;25.46;62.99;99997.81;5051884;28;20040;-79
2022/08/27 01:27:27;;;;;;;84.55;13.68;;;;;;;25.51;62.62;100011.72;5051671;28;20025;-79
2022/08/27 01:29:53;;;;;;;90.18;12.45;;;;;;;25.48;63.03;100003.91;5051707;28;20045;-79
2022/08/27 01:32:26;;;;;;;89.95;13.45;;;;;;;25.50;63.06;100012.81;5051728;28;20198;-79
2022/08/27 01:34:52;;;;;;;81.30;13.00;;;;;;;25.45;63.92;100021.75;5051225;28;20029;-79
2022/08/27 01:37:19;;;;;;;76.47;13.40;;;;;;;25.50;63.86;100011.97;5051320;28;20496;-78
2022/08/27 01:39:45;;;;;;;66.47;13.20;;;;;;;25.48;64.31;100020.44;5051423;28;20060;-79
2022/08/27 01:42:17;;;;;;;85.30;13.48;;;;;;;25.47;64.36;100018.78;5051554;28;20032;-79
2022/08/27 01:44:54;;;;;;;71.72;11.27;;;;;;;25.45;64.37;100020.91;5051133;28;20056;-79
2022/08/27 01:47:21;;;;;;;70.55;11.95;;;;;;;25.40;64.55;100020.78;5050030;28;20028;-79
2022/08/27 01:49:47;;;;;;;48.00;11.02;;;;;;;25.35;64.73;100010.47;5051340;28;20146;-80
2022/08/27 01:52:14;;;;;;;82.20;12.48;;;;;;;25.32;64.48;100021.94;5051501;28;20131;-80
2022/08/27 01:54:40;;;;;;;78.47;12.23;;;;;;;25.21;64.76;100013.66;5051581;28;20059;-79
2022/08/27 01:57:06;;;;;;;89.45;13.02;;;;;;;25.15;64.33;100004.44;5051628;28;20029;-79
2022/08/27 01:59:32;;;;;;;95.22;12.85;;;;;;;25.13;63.09;100016.75;5052967;28;20071;-78
2022/08/27 02:02:00;;;;;;;94.50;15.88;;;;;;;25.18;63.14;100014.13;5055200;28;20048;-78
2022/08/27 02:04:25;;;;;;;79.05;13.63;;;;;;;25.19;62.60;100015.81;5055026;28;20087;-79
2022/08/27 02:06:51;;;;;;;84.20;13.68;;;;;;;25.19;62.70;100015.81;5054834;28;20057;-79
2022/08/27 02:09:16;;;;;;;64.55;12.68;;;;;;;25.17;63.21;100009.69;5054722;28;20025;-78
2022/08/27 02:11:42;;;;;;;76.30;12.13;;;;;;;25.19;63.25;100011.16;5054234;28;20380;-78
2022/08/27 02:14:07;;;;;;;59.92;11.43;;;;;;;25.19;63.42;100015.81;5054412;28;20542;-78
2022/08/27 02:16:33;;;;;;;95.20;12.63;;;;;;;25.14;63.65;100016.50;5054164;28;20033;-78
2022/08/27 02:18:59;;;;;;;73.25;12.13;;;;;;;25.18;63.19;100016.88;5053889;28;20032;-81
2022/08/27 02:21:25;;;;;;;93.50;12.45;;;;;;;25.15;63.45;100017.34;5054193;28;20059;-78
2022/08/27 02:23:51;;;;;;;86.70;13.02;;;;;;;25.18;63.56;100011.38;5054196;28;20041;-78
2022/08/27 02:26:16;;;;;;;72.68;11.93;;;;;;;25.20;63.14;100007.31;5054412;28;20094;-79
2022/08/27 02:28:42;;;;;;;73.05;12.45;;;;;;;25.23;63.10;100017.84;5052697;28;20025;-79
2022/08/27 02:31:08;;;;;;;84.85;12.80;;;;;;;25.29;62.90;100016.06;5053654;28;20088;-78
2022/08/27 02:33:33;;;;;;;64.88;11.40;;;;;;;25.24;63.25;100018.69;5054087;28;20092;-78
2022/08/27 02:35:59;;;;;;;68.95;12.25;;;;;;;25.22;63.54;100020.84;5053840;28;20031;-78
2022/08/27 02:38:25;;;;;;;73.65;12.25;;;;;;;25.12;63.94;100009.56;5053888;28;20544;-79
2022/08/27 02:40:50;;;;;;;92.07;11.98;;;;;;;25.14;63.73;100013.75;5053650;28;20088;-79
2022/08/27 02:43:16;;;;;;;65.35;11.88;;;;;;;25.18;63.62;100014.13;5053357;28;20029;-79
2022/08/27 02:45:41;;;;;;;68.53;13.00;;;;;;;25.15;63.82;100020.09;5053798;28;20025;-79
2022/08/27 02:48:08;;;;;;;64.80;12.75;;;;;;;25.14;63.67;100012.91;5053699;28;20025;-79
2022/08/27 02:50:34;;;;;;;65.03;11.05;;;;;;;25.14;64.03;100019.25;5053645;28;20028;-79
2022/08/27 02:53:01;;;;;;;99.00;13.90;;;;;;;25.13;63.69;100014.84;5053728;28;20024;-79
2022/08/27 02:55:27;;;;;;;71.38;13.43;;;;;;;25.12;63.53;100012.31;5053784;28;20048;-79
2022/08/27 02:57:53;;;;;;;59.22;10.85;;;;;;;25.14;63.67;100018.41;5054755;28;20403;-76
2022/08/27 03:00:21;;;;;;;85.65;11.85;;;;;;;25.08;63.92;100017.44;5051583;28;20028;-75
2022/08/27 03:02:47;;;;;;;59.33;12.38;;;;;;;25.08;64.27;100024.84;5052777;28;20035;-75
2022/08/27 03:05:14;;;;;;;83.85;12.95;;;;;;;25.13;64.22;100022.25;5053229;28;20025;-75
2022/08/27 03:07:40;;;;;;;65.50;11.75;;;;;;;25.12;64.28;100021.41;5052818;28;20487;-75
2022/08/27 03:10:07;;;;;;;70.78;13.00;;;;;;;25.12;64.19;100031.59;5052798;28;20071;-75
2022/08/27 03:12:35;;;;;;;57.75;12.45;;;;;;;25.08;64.24;100030.34;5052804;28;20083;-75
2022/08/27 03:15:04;;;;;;;73.18;13.18;;;;;;;25.00;64.50;100028.78;5052986;28;20029;-76
2022/08/27 03:20:13;;;;;;;73.47;13.02;;;;;;;25.06;64.09;100035.28;5052745;28;20079;-75
2022/08/27 03:22:39;;;;;;;67.20;13.90;;;;;;;25.09;64.03;100032.06;5052693;28;20028;-76
2022/08/27 03:25:05;;;;;;;58.55;12.52;;;;;;;25.07;64.22;100037.81;5052735;28;20016;-76
2022/08/27 03:27:30;;;;;;;49.35;11.32;;;;;;;25.10;64.35;100039.25;5052316;28;20033;-75
2022/08/27 03:29:56;;;;;;;69.97;13.40;;;;;;;25.08;64.36;100042.22;5052344;28;21854;-75
2022/08/27 03:32:22;;;;;;;75.22;14.45;;;;;;;25.07;64.24;100046.06;5052568;28;20029;-77
2022/08/27 03:34:47;;;;;;;72.70;12.88;;;;;;;24.99;64.76;100054.63;5052277;28;21120;-75
2022/08/27 03:37:12;;;;;;;73.97;14.15;;;;;;;24.94;64.62;100057.22;5052541;28;20041;-75
2022/08/27 03:39:38;;;;;;;59.45;12.50;;;;;;;24.92;64.91;100059.41;5052009;28;20063;-75
2022/08/27 03:42:04;;;;;;;57.72;11.40;;;;;;;24.88;64.64;100055.41;5052135;28;20029;-75
2022/08/27 03:44:30;;;;;;;92.75;13.65;;;;;;;24.92;64.54;100058.53;5052147;28;20024;-76
2022/08/27 03:46:55;;;;;;;63.20;12.45;;;;;;;24.89;63.80;100044.16;5052478;28;20047;-75
2022/08/27 03:49:21;;;;;;;54.95;12.13;;;;;;;24.87;64.14;100051.81;5052388;28;20053;-75
2022/08/27 03:51:51;;;;;;;77.90;14.30;;;;;;;24.84;63.63;100052.28;5052368;28;20462;-76
2022/08/27 03:54:17;;;;;;;95.10;14.25;;;;;;;24.87;63.16;100054.56;5052174;28;20060;-76
2022/08/27 03:56:42;;;;;;;79.22;12.43;;;;;;;24.85;62.93;100044.88;5052349;28;20029;-74
2022/08/27 03:59:08;;;;;;;75.63;13.73;;;;;;;24.94;62.00;100050.88;5059198;28;20109;-74
2022/08/27 04:01:33;;;;;;;82.43;14.15;;;;;;;24.99;61.27;100048.28;5072394;28;20036;-75
2022/08/27 04:03:59;;;;;;;72.60;11.25;;;;;;;25.04;61.25;100046.53;5072192;28;20025;-77
2022/08/27 04:06:24;;;;;;;85.75;13.35;;;;;;;25.03;61.15;100049.50;5072207;28;20029;-75
2022/08/27 04:08:50;;;;;;;90.50;13.43;;;;;;;25.10;61.16;100042.00;5070786;28;20029;-75
2022/08/27 04:11:16;;;;;;;72.38;14.57;;;;;;;25.09;60.55;100038.41;5071967;28;20040;-75
2022/08/27 04:13:42;;;;;;;73.60;13.55;;;;;;;25.12;60.28;100039.84;5059257;28;20086;-75
2022/08/27 04:16:08;;;;;;;71.82;14.00;;;;;;;25.16;60.12;100039.16;5051619;28;20032;-76
2022/08/27 04:18:33;;;;;;;75.47;12.80;;;;;;;25.23;59.79;100030.78;5051435;28;20033;-76
2022/08/27 04:21:07;;;;;;;106.60;14.55;;;;;;;25.33;59.11;100034.66;5050966;28;20033;-76
2022/08/27 04:23:33;;;;;;;81.22;13.48;;;;;;;25.38;58.95;100042.22;5051123;28;20122;-76
2022/08/27 04:25:59;;;;;;;99.85;15.85;;;;;;;25.45;58.60;100042.94;5032135;28;20814;-75
2022/08/27 04:28:24;;;;;;;82.57;13.15;;;;;;;25.53;58.43;100042.66;5050043;28;20033;-74
2022/08/27 04:30:50;;;;;;;88.90;12.45;;;;;;;25.55;58.09;100032.22;5050862;28;20048;-74
2022/08/27 04:33:16;;;;;;;105.22;15.05;;;;;;;25.65;57.85;100049.00;5051153;28;20174;-74
2022/08/27 04:35:41;;;;;;;86.57;15.10;;;;;;;25.70;57.82;100048.28;5051347;28;20033;-74
2022/08/27 04:38:07;;;;;;;104.85;14.90;;;;;;;25.69;57.66;100036.44;5050931;28;20041;-78
2022/08/27 04:43:19;;;;;;;84.13;13.30;;;;;;;25.76;57.78;100034.41;5041262;28;20044;-75
2022/08/27 04:45:47;;;;;;;97.53;14.93;;;;;;;25.84;57.95;100042.31;5051258;28;20033;-77
2022/08/27 04:48:15;;;;;;;73.10;12.25;;;;;;;25.87;57.56;100046.53;5049476;28;20033;-74
2022/08/27 04:50:45;;;;;;;96.03;13.25;;;;;;;25.91;56.98;100043.03;5031093;28;20033;-76
2022/08/27 04:53:13;;;;;;;105.45;15.40;;;;;;;25.94;57.12;100045.31;5050440;28;20167;-75
2022/08/27 04:55:45;;;;;;;93.20;14.45;;;;;;;25.97;57.02;100044.84;5050505;28;20059;-75
2022/08/27 04:58:11;;;;;;;84.55;14.07;;;;;;;25.99;56.34;100045.44;5050528;28;20044;-76
2022/08/27 05:00:42;;;;;;;104.75;14.10;;;;;;;26.08;56.24;100047.84;5051105;28;20037;-76
2022/08/27 05:03:07;;;;;;;112.80;14.93;;;;;;;26.11;56.57;100047.38;5050865;28;20029;-75
2022/08/27 05:05:33;;;;;;;97.60;14.52;;;;;;;26.15;56.54;100048.53;5050218;28;20155;-75
2022/08/27 05:07:58;;;;;;;107.60;15.98;;;;;;;26.22;56.79;100043.78;5050844;28;20021;-75
2022/08/27 05:10:23;;;;;;;135.13;16.02;;;;;;;26.24;56.74;100045.22;5050620;28;20052;-76
2022/08/27 05:12:49;;;;;;;99.47;16.30;;;;;;;26.27;56.71;100057.69;5050316;28;20520;-77
2022/08/27 05:15:14;;;;;;;144.63;17.73;;;;;;;26.29;56.47;100050.03;5051036;28;20075;-76
2022/08/27 05:17:40;;;;;;;100.85;17.17;;;;;;;26.29;56.34;100050.03;5050327;28;20029;-76
2022/08/27 05:20:06;;;;;;;119.25;15.55;;;;;;;26.34;56.07;100047.38;5050465;28;20475;-76
2022/08/27 05:22:32;;;;;;;125.85;15.68;;;;;;;26.42;55.72;100056.13;5050988;28;20025;-76
2022/08/27 05:25:00;;;;;;;97.18;15.32;;;;;;;26.46;56.00;100050.97;5050425;28;20090;-75
2022/08/27 05:27:25;;;;;;;105.90;14.77;;;;;;;26.56;55.54;100056.72;5067411;28;20108;-75
2022/08/27 05:29:51;;;;;;;110.55;15.93;;;;;;;26.55;55.71;100057.78;5070510;28;20112;-75
2022/08/27 05:32:16;;;;;;;107.25;15.90;;;;;;;26.62;55.90;100061.25;5052158;28;20422;-75
2022/08/27 05:34:42;;;;;;;118.63;15.32;;;;;;;26.66;55.80;100059.69;5053616;28;20402;-74
2022/08/27 05:37:08;;;;;;;101.50;14.82;;;;;;;26.59;55.80;100053.47;5053284;28;20457;-75
2022/08/27 05:39:34;;;;;;;93.00;14.25;;;;;;;26.66;55.74;100065.22;5071695;28;20112;-76
2022/08/27 05:41:59;;;;;;;90.65;14.90;;;;;;;26.62;55.72;100055.75;5067152;28;20111;-75
2022/08/27 05:44:25;;;;;;;89.50;14.52;;;;;;;26.67;55.63;100063.25;5054234;28;20028;-75
2022/08/27 05:46:50;;;;;;;98.32;17.30;;;;;;;26.69;55.82;100067.50;5069673;28;20508;-76
2022/08/27 05:49:16;;;;;;;101.85;16.42;;;;;;;26.68;55.72;100063.03;5053584;28;20503;-75
2022/08/27 05:51:41;;;;;;;103.10;15.73;;;;;;;26.76;56.02;100072.84;5053245;28;20032;-76
2022/08/27 05:54:13;;;;;;;69.20;14.27;;;;;;;26.79;55.71;100067.69;5053218;28;20518;-75
2022/08/27 05:56:40;;;;;;;99.03;15.25;;;;;;;26.82;55.53;100069.97;5053372;28;20108;-76
2022/08/27 06:01:54;;;;;;;90.72;18.85;;;;;;;26.85;55.17;100069.50;5053105;28;20064;-76
2022/08/27 06:04:21;;;;;;;99.25;15.73;;;;;;;26.92;55.48;100081.25;5051592;28;20029;-77
2022/08/27 06:06:47;;;;;;;80.03;16.13;;;;;;;26.97;55.44;100086.84;5053914;28;20039;-75
2022/08/27 06:09:16;;;;;;;73.75;16.58;;;;;;;27.00;55.30;100086.38;5053528;28;20029;-75
2022/08/27 06:11:42;;;;;;;117.88;21.60;;;;;;;27.01;54.99;100087.22;5053463;28;20136;-75
2022/08/27 06:14:08;;;;;;;87.88;16.00;;;;;;;26.99;54.79;100095.75;5055146;28;20035;-75
2022/08/27 06:16:35;;;;;;;60.28;15.57;;;;;;;26.98;55.07;100094.06;5073469;28;20498;-74
2022/08/27 06:19:01;;;;;;;114.93;18.08;;;;;;;27.03;55.46;100096.91;5073658;28;20028;-76
2022/08/27 06:21:26;;;;;;;112.10;20.13;;;;;;;27.07;55.29;100096.44;5060201;28;20102;-76
2022/08/27 06:23:53;;;;;;;86.13;18.30;;;;;;;27.06;55.42;100103.06;5054959;28;20032;-76
2022/08/27 06:26:21;;;;;;;88.82;17.10;;;;;;;27.06;55.37;100100.28;5052430;28;20048;-75
2022/08/27 06:28:47;;;;;;;89.72;19.52;;;;;;;27.04;55.52;100097.75;5053304;28;20035;-75
2022/08/27 06:31:19;;;;;;;81.30;20.13;;;;;;;27.14;55.59;100108.19;5052845;28;20032;-75
2022/08/27 06:33:46;;;;;;;93.68;17.88;;;;;;;27.16;55.33;100095.81;5053899;28;20043;-75
2022/08/27 06:36:14;;;;;;;89.45;18.73;;;;;;;27.28;55.81;100104.88;5063530;28;20037;-75
2022/08/27 06:38:41;;;;;;;103.20;18.70;;;;;;;27.35;55.60;100099.22;5055323;28;20144;-76
2022/08/27 06:41:09;;;;;;;66.45;18.50;;;;;;;27.36;55.00;100106.41;5038555;28;20040;-76
2022/08/27 06:43:38;;;;;;;97.75;19.05;;;;;;;27.45;55.30;100110.50;5052948;28;20084;-75
2022/08/27 06:46:12;;;;;;;80.43;18.50;;;;;;;27.43;54.92;100112.69;5052827;28;20471;-75
2022/08/27 06:48:38;;;;;;;84.10;17.65;;;;;;;27.42;55.27;100102.66;5052912;28;20029;-75
2022/08/27 06:51:13;;;;;;;94.75;20.38;;;;;;;27.47;55.11;100108.31;5052266;28;20040;-75
2022/08/27 06:54:20;;;;;;;89.00;17.10;;;;;;;27.56;55.10;100123.41;5071670;28;20029;-82
2022/08/27 06:56:47;;;;;;;84.68;16.00;;;;;;;27.49;54.58;100118.03;5063097;28;20505;-75
2022/08/27 06:59:15;;;;;;;67.00;15.50;;;;;;;27.59;54.33;100111.84;5052093;28;20087;-75
2022/08/27 07:01:42;;;;;;;83.90;16.05;;;;;;;27.67;54.13;100124.44;5052402;28;20021;-75
2022/08/27 07:04:11;;;;;;;63.65;15.35;;;;;;;27.73;53.51;100124.28;5052406;28;20056;-75
2022/08/27 07:06:38;;;;;;;93.90;16.98;;;;;;;27.78;53.28;100118.84;5052042;28;20098;-74
2022/08/27 07:09:05;;;;;;;96.47;14.98;;;;;;;27.82;52.97;100117.28;5052589;28;20032;-75
2022/08/27 07:11:31;;;;;;;97.03;14.35;;;;;;;27.86;51.29;100110.13;5052927;28;20055;-75
2022/08/27 07:13:58;;;;;;;88.05;14.65;;;;;;;28.04;50.39;100126.50;5052825;28;20029;-75
2022/08/27 07:16:25;;;;;;;69.13;15.32;;;;;;;28.13;49.72;100123.34;5052384;28;20495;-75
2022/08/27 07:18:53;;;;;;;78.68;14.82;;;;;;;28.27;50.14;100124.66;5052694;28;20028;-75
2022/08/27 07:21:19;;;;;;;63.22;14.43;;;;;;;28.33;51.09;100120.88;5052391;28;20064;-76
2022/08/27 07:23:45;;;;;;;74.53;15.52;;;;;;;28.46;51.91;100123.31;5052527;28;20037;-75
2022/08/27 07:26:13;;;;;;;108.25;16.30;;;;;;;28.57;52.12;100119.59;5052223;28;20025;-75
2022/08/27 07:28:39;;;;;;;92.85;16.85;;;;;;;28.66;51.45;100123.63;5052345;28;20060;-75
2022/08/27 07:31:09;;;;;;;102.18;17.33;;;;;;;28.68;51.58;100126.16;5052538;28;20036;-74
2022/08/27 07:33:36;;;;;;;73.90;14.40;;;;;;;28.70;51.06;100113.72;5052411;28;20032;-75
2022/08/27 07:36:03;;;;;;;87.97;15.32;;;;;;;28.86;50.55;100123.94;5052232;28;20108;-75
2022/08/27 07:38:28;;;;;;;84.05;12.77;;;;;;;28.97;47.73;100111.88;5050931;28;20515;-75
2022/08/27 07:40:54;;;;;;;77.55;13.35;;;;;;;29.05;47.28;100116.16;5050993;28;20031;-77
2022/08/27 07:46:04;;;;;;;86.40;13.10;;;;;;;29.21;45.94;100117.13;5048868;28;20075;-75
2022/08/27 07:48:32;;;;;;;125.75;15.32;;;;;;;29.34;46.65;100119.56;5050509;28;20053;-75
2022/08/27 07:50:58;;;;;;;97.63;15.25;;;;;;;29.44;46.22;100120.53;5052134;28;20111;-76
2022/08/27 07:53:23;;;;;;;85.03;12.88;;;;;;;29.46;45.04;100112.78;5051598;28;20104;-75
2022/08/27 07:55:49;;;;;;;82.97;13.35;;;;;;;29.57;45.07;100111.75;5051568;28;20494;-76
2022/08/27 07:58:14;;;;;;;91.78;12.73;;;;;;;29.70;45.09;100121.59;5051186;28;20083;-75
2022/08/27 08:00:42;;;;;;;91.82;14.55;;;;;;;29.84;44.02;100111.81;5051645;28;20033;-75
2022/08/27 08:03:07;;;;;;;100.68;12.80;;;;;;;29.88;43.91;100114.88;5051870;28;20051;-74
2022/08/27 08:05:33;;;;;;;95.78;14.20;;;;;;;29.91;43.53;100114.34;5050757;28;20033;-73
2022/08/27 08:07:59;;;;;;;90.53;13.13;;;;;;;29.96;43.26;100112.47;5051371;28;20033;-74
2022/08/27 08:10:24;;;;;;;89.43;13.80;;;;;;;29.94;43.43;100113.81;5051704;28;20108;-73
2022/08/27 08:12:50;;;;;;;88.55;13.35;;;;;;;30.01;43.10;100108.88;5051068;28;20036;-73
2022/08/27 08:15:16;;;;;;;95.07;13.98;;;;;;;30.02;43.21;100110.56;5049846;28;20086;-74
2022/08/27 08:17:43;;;;;;;95.05;15.07;;;;;;;30.09;43.10;100105.66;5050678;28;20029;-73
2022/08/27 08:20:10;;;;;;;87.13;12.45;;;;;;;30.12;42.91;100105.94;5051106;28;20048;-73
2022/08/27 08:22:36;;;;;;;99.40;13.48;;;;;;;30.13;41.90;100113.16;5051306;28;20078;-73
2022/08/27 08:25:02;;;;;;;79.90;11.65;;;;;;;30.16;41.41;100107.06;5050966;28;20033;-73
2022/08/27 08:27:27;;;;;;;81.65;15.32;;;;;;;30.28;41.80;100109.66;5051293;28;20029;-72
2022/08/27 08:29:53;;;;;;;93.45;13.10;;;;;;;30.45;41.94;100101.22;5050771;28;20069;-73
2022/08/27 08:32:20;;;;;;;91.90;13.38;;;;;;;30.61;41.32;100114.09;5051250;28;20398;-74
2022/08/27 08:34:46;;;;;;;84.72;12.40;;;;;;;30.74;41.62;100119.16;5050730;28;20025;-75
2022/08/27 08:37:13;;;;;;;91.65;13.82;;;;;;;30.83;40.35;100111.97;5050924;28;21677;-75
2022/08/27 08:39:39;;;;;;;109.00;13.27;;;;;;;30.92;40.00;100110.34;5051028;28;20027;-75
2022/08/27 08:42:07;;;;;;;96.75;13.90;;;;;;;31.05;39.94;100109.91;5051122;28;20024;-75
2022/08/27 08:44:41;;;;;;;74.97;13.73;;;;;;;31.13;39.64;100106.59;5051201;28;20048;-75
2022/08/27 08:47:15;;;;;;;91.38;12.65;;;;;;;31.18;38.80;100114.94;5051090;28;20028;-75
2022/08/27 08:49:48;;;;;;;101.38;14.57;;;;;;;31.16;38.13;100094.91;5050908;28;20025;-75
2022/08/27 08:52:23;;;;;;;79.90;12.95;;;;;;;31.28;38.42;100112.19;5051037;28;20031;-75
2022/08/27 08:54:50;;;;;;;102.50;13.93;;;;;;;31.29;38.25;100111.09;5050617;28;20116;-75
2022/08/27 08:57:24;;;;;;;99.43;13.57;;;;;;;31.22;38.13;100093.81;5050703;28;20106;-75
2022/08/27 09:00:11;;;;;;;77.25;11.77;;;;;;;31.31;38.77;100096.94;5050745;28;20456;-75
2022/08/27 09:02:37;;;;;;;96.63;13.63;;;;;;;31.23;38.83;100101.06;5050798;28;20491;-75
2022/08/27 09:05:06;;;;;;;84.43;12.10;;;;;;;31.31;39.03;100102.50;5049344;28;20404;-75
2022/08/27 09:07:37;;;;;;;86.28;14.40;;;;;;;31.54;39.83;100103.97;5050555;28;20021;-75
2022/08/27 09:10:26;;;;;;;107.45;13.40;;;;;;;31.60;39.25;100105.63;5050589;28;20025;-75
2022/08/27 09:12:57;;;;;;;89.00;12.18;;;;;;;31.61;39.70;100113.72;5050807;28;20055;-75
2022/08/27 09:15:27;;;;;;;91.97;14.38;;;;;;;31.48;42.39;100118.91;5050613;28;20101;-74
2022/08/27 09:18:07;;;;;;;95.53;15.43;;;;;;;31.42;44.25;100117.25;5050608;28;20025;-73
2022/08/27 09:20:35;;;;;;;95.72;13.93;;;;;;;31.29;44.67;100119.44;5050732;28;20059;-74
2022/08/27 09:23:24;;;;;;;85.32;12.55;;;;;;;31.29;44.14;100132.47;5050576;28;20039;-75
2022/08/27 09:25:50;;;;;;;93.45;15.85;;;;;;;31.18;45.18;100137.19;5050117;28;20025;-75
2022/08/27 09:31:15;;;;;;;78.43;13.88;;;;;;;31.07;44.88;100124.34;5030636;28;20028;-75
2022/08/27 09:33:41;;;;;;;97.90;14.98;;;;;;;30.93;44.44;100111.19;5030678;28;20041;-76
2022/08/27 09:36:14;;;;;;;85.22;13.07;;;;;;;30.76;46.46;100117.75;5030689;28;20749;-77
2022/08/27 09:38:50;;;;;;;87.65;14.70;;;;;;;30.86;46.56;100128.09;5030360;28;20107;-75
2022/08/27 09:41:26;;;;;;;73.15;12.73;;;;;;;30.77;46.48;100119.44;5030275;28;20034;-75
2022/08/27 09:44:00;;;;;;;75.95;11.73;;;;;;;30.83;45.57;100123.09;5030303;28;20633;-76
2022/08/27 09:46:27;;;;;;;79.03;12.70;;;;;;;30.85;45.66;100120.06;5030507;28;20026;-75
2022/08/27 09:48:53;;;;;;;75.20;12.45;;;;;;;30.89;44.63;100130.34;5030541;28;20040;-74
2022/08/27 09:51:22;;;;;;;90.25;11.38;;;;;;;30.75;47.03;100109.72;5030595;28;20506;-74
2022/08/27 09:53:55;;;;;;;95.53;12.52;;;;;;;30.73;47.07;100125.81;5030572;28;20036;-75
2022/08/27 09:56:21;;;;;;;63.80;12.10;;;;;;;30.76;47.22;100128.06;5030608;28;20494;-75
2022/08/27 09:58:52;;;;;;;64.13;11.63;;;;;;;30.70;46.98;100123.59;5030493;28;20038;-74
2022/08/27 10:01:23;;;;;;;105.60;13.37;;;;;;;30.59;48.43;100121.84;5030556;28;20065;-75
2022/08/27 10:03:49;;;;;;;86.40;13.68;;;;;;;30.62;47.37;100121.28;5030498;28;20295;-77
2022/08/27 10:06:27;;;;;;;98.85;11.40;;;;;;;30.64;47.56;100124.66;5030569;28;20436;-77
2022/08/27 10:08:56;;;;;;;83.75;11.60;;;;;;;30.60;48.95;100112.41;5030688;28;20036;-79
2022/08/27 10:11:40;;;;;;;68.07;11.15;;;;;;;30.63;46.95;100117.44;5030375;28;20029;-77
2022/08/27 10:14:19;;;;;;;72.72;13.02;;;;;;;30.62;47.91;100121.28;5029141;28;20499;-79
2022/08/27 10:17:15;;;;;;;71.80;11.27;;;;;;;30.85;46.13;100125.59;5030553;28;20029;-76
2022/08/27 10:19:56;;;;;;;76.32;15.00;;;;;;;30.88;48.09;100114.78;5030307;28;20037;-76
2022/08/27 10:22:41;;;;;;;95.88;14.23;;;;;;;31.08;46.24;100131.56;5052030;28;20143;-76
2022/08/27 10:25:21;;;;;;;81.22;12.30;;;;;;;31.20;43.21;100129.41;5033909;28;20037;-76
2022/08/27 10:28:15;;;;;;;80.28;10.95;;;;;;;31.08;44.01;100126.03;5035011;28;20112;-82
2022/08/27 10:30:49;;;;;;;84.53;11.55;;;;;;;31.31;43.47;100129.44;5034571;28;20033;-82
2022/08/27 10:33:21;;;;;;;71.05;12.57;;;;;;;31.43;45.09;100128.09;5034220;28;20057;-77
2022/08/27 10:35:48;;;;;;;;;;;;;;;31.65;43.55;100125.94;5034155;28;20039;-76
2022/08/27 10:38:20;;;;;;;79.32;12.10;;;;;;;31.75;40.70;100122.34;5033589;28;19979;-76
2022/08/27 10:41:13;;;;;;;70.03;10.77;;;;;;;31.74;39.21;100123.47;5033758;28;20033;-76
2022/08/27 10:43:45;;;;;;;61.40;10.18;;;;;;;31.85;38.10;100118.75;5033578;28;20041;-75
2022/08/27 10:46:31;;;;;;;75.03;10.20;;;;;;;31.99;37.91;100120.69;5033088;28;20110;-79
2022/08/27 10:49:04;;;;;;;89.75;11.63;;;;;;;32.22;38.57;100125.75;5033292;28;20083;-74
2022/08/27 10:51:44;;;;;;;76.82;10.80;;;;;;;32.27;38.60;100110.97;5033040;28;20029;-75
2022/08/27 10:54:26;;;;;;;105.32;11.68;;;;;;;32.48;37.16;100101.47;5033393;28;20072;-76
2022/08/27 10:57:08;;;;;;;71.22;10.35;;;;;;;32.46;37.21;100108.47;5048750;28;20029;-77
2022/08/27 11:00:11;;;;;;;83.53;11.20;;;;;;;32.52;37.13;100102.59;5033444;28;20034;-76
2022/08/27 11:02:45;;;;;;;48.35;8.63;;;;;;;32.65;36.96;100106.78;5024665;28;20052;-75
2022/08/27 11:05:22;;;;;;;79.40;9.68;;;;;;;32.61;35.39;100111.25;5033524;28;20375;-77
2022/08/27 11:07:59;;;;;;;66.13;11.20;;;;;;;32.47;35.20;100107.34;5033275;28;20475;-75
2022/08/27 11:10:31;;;;;;;60.78;9.50;;;;;;;32.42;34.99;100113.75;5033126;28;20033;-76
2022/08/27 11:13:09;;;;;;;68.30;9.30;;;;;;;32.43;36.20;100109.00;5033232;28;20478;-75
2022/08/27 11:15:37;;;;;;;83.00;10.20;;;;;;;32.56;35.56;100108.47;5033190;28;20030;-75
2022/08/27 11:18:21;;;;;;;59.47;9.45;;;;;;;32.63;34.33;100109.84;5033125;28;20049;-76
2022/08/27 11:21:09;;;;;;;57.30;9.80;;;;;;;32.73;36.45;100108.97;5032925;28;20033;-76
2022/08/27 11:24:19;;;;;;;61.05;11.25;;;;;;;32.81;35.33;100109.22;5033142;28;20037;-76
2022/08/27 11:26:45;;;;;;;91.20;11.27;;;;;;;32.88;36.53;100106.13;5027223;28;20056;-76
2022/08/27 11:29:44;;;;;;;62.78;10.75;;;;;;;32.99;38.28;100113.38;5033145;28;20080;-75
2022/08/27 11:32:18;;;;;;;92.40;11.48;;;;;;;33.11;38.99;100115.84;5032731;28;20151;-77